sensor_id;sensor_type;location;lat;lon;timestamp;pressure;altitude;pressure_sealevel;temperature;humidity
23363;BME280;11853;48.080;11.960;2023-02-16T00:01:35;95815.53;;;2.26;95.84
23363;BME280;11853;48.080;11.960;2023-02-16T00:04:11;95811.03;;;2.30;96.27
23363;BME280;11853;48.080;11.960;2023-02-16T00:06:40;95805.78;;;2.30;96.01
23363;BME280;11853;48.080;11.960;2023-02-16T00:09:05;95799.72;;;2.29;96.78
23363;BME280;11853;48.080;11.960;2023-02-16T00:11:32;95800.88;;;2.23;96.18
23363;BME280;11853;48.080;11.960;2023-02-16T00:14:19;95792.91;;;2.25;96.54
23363;BME280;11853;48.080;11.960;2023-02-16T00:16:47;95788.00;;;2.19;96.46
23363;BME280;11853;48.080;11.960;2023-02-16T00:19:23;95787.94;;;2.20;96.31
23363;BME280;11853;48.080;11.960;2023-02-16T00:21:51;95793.25;;;2.19;95.19
23363;BME280;11853;48.080;11.960;2023-02-16T00:24:17;95791.56;;;2.18;94.27
23363;BME280;11853;48.080;11.960;2023-02-16T00:26:43;95788.16;;;2.16;94.85
23363;BME280;11853;48.080;11.960;2023-02-16T00:29:14;95796.00;;;2.16;95.00
23363;BME280;11853;48.080;11.960;2023-02-16T00:31:41;95795.25;;;2.14;95.09
23363;BME280;11853;48.080;11.960;2023-02-16T00:34:36;95794.34;;;2.15;95.02
23363;BME280;11853;48.080;11.960;2023-02-16T00:37:05;95787.47;;;2.12;94.81
23363;BME280;11853;48.080;11.960;2023-02-16T00:39:31;95786.75;;;2.09;95.26
23363;BME280;11853;48.080;11.960;2023-02-16T00:42:01;95781.38;;;2.12;96.82
23363;BME280;11853;48.080;11.960;2023-02-16T00:44:33;95796.41;;;2.08;98.33
23363;BME280;11853;48.080;11.960;2023-02-16T00:47:52;95787.47;;;2.12;98.52
23363;BME280;11853;48.080;11.960;2023-02-16T00:49:54;95788.84;;;2.19;99.24
23363;BME280;11853;48.080;11.960;2023-02-16T00:52:35;95784.28;;;2.23;96.90
23363;BME280;11853;48.080;11.960;2023-02-16T00:55:05;95782.59;;;2.22;97.99
23363;BME280;11853;48.080;11.960;2023-02-16T00:57:34;95775.69;;;2.21;99.91
23363;BME280;11853;48.080;11.960;2023-02-16T01:02:33;95765.06;;;2.24;98.92
23363;BME280;11853;48.080;11.960;2023-02-16T01:04:59;95764.22;;;2.23;97.47
23363;BME280;11853;48.080;11.960;2023-02-16T01:07:24;95768.59;;;2.23;98.75
23363;BME280;11853;48.080;11.960;2023-02-16T01:10:09;95765.97;;;2.23;97.02
23363;BME280;11853;48.080;11.960;2023-02-16T01:12:53;95762.75;;;2.18;95.45
23363;BME280;11853;48.080;11.960;2023-02-16T01:15:21;95760.16;;;2.18;97.59
23363;BME280;11853;48.080;11.960;2023-02-16T01:17:48;95757.91;;;2.10;98.38
23363;BME280;11853;48.080;11.960;2023-02-16T01:20:19;95756.91;;;2.13;97.94
23363;BME280;11853;48.080;11.960;2023-02-16T01:22:46;95749.97;;;2.12;98.45
23363;BME280;11853;48.080;11.960;2023-02-16T01:25:13;95745.59;;;2.12;97.82
23363;BME280;11853;48.080;11.960;2023-02-16T01:27:40;95751.06;;;2.08;97.80
23363;BME280;11853;48.080;11.960;2023-02-16T01:30:11;95729.97;;;2.11;98.77
23363;BME280;11853;48.080;11.960;2023-02-16T01:32:37;95742.06;;;2.13;98.06
23363;BME280;11853;48.080;11.960;2023-02-16T01:35:03;95744.59;;;2.15;97.49
23363;BME280;11853;48.080;11.960;2023-02-16T01:37:29;95742.72;;;2.17;97.94
23363;BME280;11853;48.080;11.960;2023-02-16T01:39:55;95735.97;;;2.13;98.46
23363;BME280;11853;48.080;11.960;2023-02-16T01:42:37;95739.44;;;2.13;100.00
23363;BME280;11853;48.080;11.960;2023-02-16T01:45:14;95740.22;;;2.15;99.90
23363;BME280;11853;48.080;11.960;2023-02-16T01:47:57;95742.72;;;2.17;99.92
23363;BME280;11853;48.080;11.960;2023-02-16T01:50:31;95738.22;;;2.20;99.71
23363;BME280;11853;48.080;11.960;2023-02-16T01:55:25;95726.03;;;2.19;99.70
23363;BME280;11853;48.080;11.960;2023-02-16T01:58:00;95727.75;;;2.20;99.81
23363;BME280;11853;48.080;11.960;2023-02-16T02:03:25;95724.19;;;2.21;100.00
23363;BME280;11853;48.080;11.960;2023-02-16T02:06:13;95725.88;;;2.22;99.63
23363;BME280;11853;48.080;11.960;2023-02-16T02:11:40;95721.47;;;2.23;99.05
23363;BME280;11853;48.080;11.960;2023-02-16T02:17:11;95721.31;;;2.26;98.62
23363;BME280;11853;48.080;11.960;2023-02-16T02:32:00;95701.47;;;2.22;99.49
23363;BME280;11853;48.080;11.960;2023-02-16T02:37:19;95718.97;;;2.37;99.36
23363;BME280;11853;48.080;11.960;2023-02-16T02:43:24;95707.47;;;2.24;100.00
23363;BME280;11853;48.080;11.960;2023-02-16T02:45:59;95713.63;;;2.23;100.00
23363;BME280;11853;48.080;11.960;2023-02-16T02:48:31;95721.63;;;2.20;100.00
23363;BME280;11853;48.080;11.960;2023-02-16T02:51:01;95727.28;;;2.12;100.00
23363;BME280;11853;48.080;11.960;2023-02-16T02:54:02;95727.63;;;2.06;100.00
23363;BME280;11853;48.080;11.960;2023-02-16T02:56:57;95719.66;;;2.08;100.00
23363;BME280;11853;48.080;11.960;2023-02-16T02:59:46;95725.50;;;2.13;100.00
23363;BME280;11853;48.080;11.960;2023-02-16T03:02:32;95726.13;;;2.18;100.00
23363;BME280;11853;48.080;11.960;2023-02-16T03:05:01;95733.81;;;2.21;100.00
23363;BME280;11853;48.080;11.960;2023-02-16T03:07:28;95728.75;;;2.18;100.00
23363;BME280;11853;48.080;11.960;2023-02-16T03:10:28;95730.50;;;2.17;99.51
23363;BME280;11853;48.080;11.960;2023-02-16T03:13:37;95726.88;;;2.20;99.59
23363;BME280;11853;48.080;11.960;2023-02-16T03:16:06;95726.41;;;2.12;100.00
23363;BME280;11853;48.080;11.960;2023-02-16T03:18:35;95726.41;;;2.12;100.00
23363;BME280;11853;48.080;11.960;2023-02-16T03:21:20;95733.53;;;2.10;100.00
23363;BME280;11853;48.080;11.960;2023-02-16T03:24:06;95722.44;;;2.05;99.93
23363;BME280;11853;48.080;11.960;2023-02-16T03:26:52;95727.84;;;2.01;100.00
23363;BME280;11853;48.080;11.960;2023-02-16T03:29:38;95727.69;;;2.05;100.00
23363;BME280;11853;48.080;11.960;2023-02-16T03:32:04;95723.28;;;2.05;100.00
23363;BME280;11853;48.080;11.960;2023-02-16T03:34:31;95725.13;;;2.03;100.00
23363;BME280;11853;48.080;11.960;2023-02-16T03:36:58;95729.19;;;2.09;99.50
23363;BME280;11853;48.080;11.960;2023-02-16T03:39:28;95737.91;;;2.09;99.33
23363;BME280;11853;48.080;11.960;2023-02-16T03:41:55;95743.22;;;2.08;97.96
23363;BME280;11853;48.080;11.960;2023-02-16T03:44:23;95748.44;;;2.08;98.38
23363;BME280;11853;48.080;11.960;2023-02-16T03:46:49;95747.59;;;2.07;97.44
23363;BME280;11853;48.080;11.960;2023-02-16T03:49:16;95738.97;;;2.05;97.90
23363;BME280;11853;48.080;11.960;2023-02-16T03:51:42;95738.47;;;1.98;97.96
23363;BME280;11853;48.080;11.960;2023-02-16T03:54:08;95736.22;;;1.91;98.83
23363;BME280;11853;48.080;11.960;2023-02-16T03:56:34;95736.91;;;1.94;96.65
23363;BME280;11853;48.080;11.960;2023-02-16T03:58:59;95742.16;;;1.94;98.05
23363;BME280;11853;48.080;11.960;2023-02-16T04:01:25;95747.53;;;1.91;98.06
23363;BME280;11853;48.080;11.960;2023-02-16T04:03:50;95738.84;;;1.91;97.71
23363;BME280;11853;48.080;11.960;2023-02-16T04:06:16;95739.53;;;1.94;97.00
23363;BME280;11853;48.080;11.960;2023-02-16T04:08:42;95735.38;;;1.90;97.09
23363;BME280;11853;48.080;11.960;2023-02-16T04:11:07;95744.00;;;1.92;97.03
23363;BME280;11853;48.080;11.960;2023-02-16T04:13:51;95740.63;;;1.90;97.22
23363;BME280;11853;48.080;11.960;2023-02-16T04:16:17;95741.09;;;1.81;97.57
23363;BME280;11853;48.080;11.960;2023-02-16T04:18:43;95744.44;;;1.83;97.65
23363;BME280;11853;48.080;11.960;2023-02-16T04:21:08;95740.25;;;1.80;97.04
23363;BME280;11853;48.080;11.960;2023-02-16T04:23:34;95737.53;;;1.82;96.71
23363;BME280;11853;48.080;11.960;2023-02-16T04:25:59;95736.75;;;1.80;96.77
23363;BME280;11853;48.080;11.960;2023-02-16T04:28:25;95739.69;;;1.74;96.50
23363;BME280;11853;48.080;11.960;2023-02-16T04:30:52;95740.78;;;1.70;97.08
23363;BME280;11853;48.080;11.960;2023-02-16T04:33:18;95749.63;;;1.67;97.09
23363;BME280;11853;48.080;11.960;2023-02-16T04:35:43;95737.69;;;1.62;97.07
23363;BME280;11853;48.080;11.960;2023-02-16T04:38:09;95742.00;;;1.63;97.41
23363;BME280;11853;48.080;11.960;2023-02-16T04:40:34;95746.38;;;1.62;96.95
23363;BME280;11853;48.080;11.960;2023-02-16T04:43:00;95750.16;;;1.56;97.47
23363;BME280;11853;48.080;11.960;2023-02-16T04:45:26;95756.31;;;1.55;97.71
23363;BME280;11853;48.080;11.960;2023-02-16T04:47:51;95755.38;;;1.56;97.31
23363;BME280;11853;48.080;11.960;2023-02-16T04:50:35;95751.09;;;1.55;97.71
23363;BME280;11853;48.080;11.960;2023-02-16T04:53:03;95751.94;;;1.56;97.75
23363;BME280;11853;48.080;11.960;2023-02-16T04:55:28;95754.22;;;1.62;97.92
23363;BME280;11853;48.080;11.960;2023-02-16T04:57:55;95759.25;;;1.67;97.24
23363;BME280;11853;48.080;11.960;2023-02-16T05:00:21;95759.25;;;1.67;96.75
23363;BME280;11853;48.080;11.960;2023-02-16T05:02:47;95758.25;;;1.69;96.51
23363;BME280;11853;48.080;11.960;2023-02-16T05:05:12;95758.31;;;1.68;96.35
23363;BME280;11853;48.080;11.960;2023-02-16T05:07:38;95761.88;;;1.67;97.59
23363;BME280;11853;48.080;11.960;2023-02-16T05:10:04;95757.38;;;1.69;97.97
23363;BME280;11853;48.080;11.960;2023-02-16T05:12:30;95752.47;;;1.63;98.68
23363;BME280;11853;48.080;11.960;2023-02-16T05:15:14;95762.50;;;1.72;98.41
23363;BME280;11853;48.080;11.960;2023-02-16T05:17:40;95753.56;;;1.76;98.64
23363;BME280;11853;48.080;11.960;2023-02-16T05:20:06;95752.63;;;1.77;98.80
23363;BME280;11853;48.080;11.960;2023-02-16T05:22:31;95759.47;;;1.79;99.13
23363;BME280;11853;48.080;11.960;2023-02-16T05:24:59;95759.41;;;1.81;99.33
23363;BME280;11853;48.080;11.960;2023-02-16T05:27:27;95758.63;;;1.79;97.34
23363;BME280;11853;48.080;11.960;2023-02-16T05:29:54;95762.19;;;1.78;96.56
23363;BME280;11853;48.080;11.960;2023-02-16T05:32:20;95757.94;;;1.75;96.97
23363;BME280;11853;48.080;11.960;2023-02-16T05:34:46;95765.00;;;1.73;97.66
23363;BME280;11853;48.080;11.960;2023-02-16T05:37:16;95762.38;;;1.73;96.94
23363;BME280;11853;48.080;11.960;2023-02-16T05:39:43;95759.78;;;1.73;97.16
23363;BME280;11853;48.080;11.960;2023-02-16T05:42:11;95760.63;;;1.74;97.69
23363;BME280;11853;48.080;11.960;2023-02-16T05:44:37;95765.84;;;1.74;97.70
23363;BME280;11853;48.080;11.960;2023-02-16T05:47:03;95760.00;;;1.69;97.62
23363;BME280;11853;48.080;11.960;2023-02-16T05:49:29;95763.53;;;1.68;97.10
23363;BME280;11853;48.080;11.960;2023-02-16T05:51:54;95771.31;;;1.69;97.48
23363;BME280;11853;48.080;11.960;2023-02-16T05:54:20;95767.31;;;1.62;97.17
23363;BME280;11853;48.080;11.960;2023-02-16T05:56:48;95772.63;;;1.61;97.90
23363;BME280;11853;48.080;11.960;2023-02-16T05:59:15;95771.53;;;1.65;97.13
23363;BME280;11853;48.080;11.960;2023-02-16T06:01:42;95775.16;;;1.62;96.68
23363;BME280;11853;48.080;11.960;2023-02-16T06:04:10;95779.06;;;1.53;96.67
23363;BME280;11853;48.080;11.960;2023-02-16T06:06:37;95784.38;;;1.52;97.43
23363;BME280;11853;48.080;11.960;2023-02-16T06:09:08;95788.59;;;1.54;97.97
23363;BME280;11853;48.080;11.960;2023-02-16T06:11:34;95799.69;;;1.60;97.33
23363;BME280;11853;48.080;11.960;2023-02-16T06:14:19;95792.06;;;1.55;97.11
23363;BME280;11853;48.080;11.960;2023-02-16T06:16:49;95787.84;;;1.52;97.38
23363;BME280;11853;48.080;11.960;2023-02-16T06:19:18;95802.44;;;1.56;97.82
23363;BME280;11853;48.080;11.960;2023-02-16T06:21:45;95801.44;;;1.59;97.52
23363;BME280;11853;48.080;11.960;2023-02-16T06:24:11;95807.63;;;1.58;97.49
23363;BME280;11853;48.080;11.960;2023-02-16T06:26:37;95799.53;;;1.63;98.17
23363;BME280;11853;48.080;11.960;2023-02-16T06:29:04;95805.31;;;1.69;98.71
23363;BME280;11853;48.080;11.960;2023-02-16T06:31:30;95807.69;;;1.74;98.46
23363;BME280;11853;48.080;11.960;2023-02-16T06:33:55;95810.00;;;1.80;99.10
23363;BME280;11853;48.080;11.960;2023-02-16T06:36:22;95814.25;;;1.83;98.87
23363;BME280;11853;48.080;11.960;2023-02-16T06:38:47;95805.19;;;1.90;98.77
23363;BME280;11853;48.080;11.960;2023-02-16T06:41:14;95806.88;;;1.91;99.59
23363;BME280;11853;48.080;11.960;2023-02-16T06:44:15;95812.88;;;1.93;98.45
23363;BME280;11853;48.080;11.960;2023-02-16T06:46:43;95801.00;;;2.03;97.75
23363;BME280;11853;48.080;11.960;2023-02-16T06:49:14;95811.78;;;2.14;97.62
23363;BME280;11853;48.080;11.960;2023-02-16T06:51:42;95816.09;;;2.15;97.31
23363;BME280;11853;48.080;11.960;2023-02-16T06:54:09;95819.41;;;2.19;97.70
23363;BME280;11853;48.080;11.960;2023-02-16T06:56:35;95814.78;;;2.24;97.11
23363;BME280;11853;48.080;11.960;2023-02-16T06:59:02;95820.69;;;2.45;97.25
23363;BME280;11853;48.080;11.960;2023-02-16T07:01:28;95811.84;;;2.81;95.44
23363;BME280;11853;48.080;11.960;2023-02-16T07:03:55;95812.56;;;3.48;94.15
23363;BME280;11853;48.080;11.960;2023-02-16T07:06:23;95818.47;;;4.27;93.61
23363;BME280;11853;48.080;11.960;2023-02-16T07:08:51;95817.78;;;5.11;97.92
23363;BME280;11853;48.080;11.960;2023-02-16T07:11:17;95818.28;;;5.45;88.86
23363;BME280;11853;48.080;11.960;2023-02-16T07:13:44;95820.50;;;5.65;83.74
23363;BME280;11853;48.080;11.960;2023-02-16T07:16:11;95823.25;;;5.64;82.10
23363;BME280;11853;48.080;11.960;2023-02-16T07:18:37;95823.88;;;5.68;82.23
23363;BME280;11853;48.080;11.960;2023-02-16T07:21:04;95830.53;;;5.73;82.77
23363;BME280;11853;48.080;11.960;2023-02-16T07:23:31;95826.19;;;5.72;83.32
23363;BME280;11853;48.080;11.960;2023-02-16T07:25:57;95829.50;;;5.76;83.54
23363;BME280;11853;48.080;11.960;2023-02-16T07:28:23;95836.28;;;5.65;82.93
23363;BME280;11853;48.080;11.960;2023-02-16T07:30:49;95833.22;;;5.59;83.28
23363;BME280;11853;48.080;11.960;2023-02-16T07:33:17;95828.59;;;5.62;82.08
23363;BME280;11853;48.080;11.960;2023-02-16T07:35:43;95834.59;;;5.64;82.40
23363;BME280;11853;48.080;11.960;2023-02-16T07:38:09;95830.28;;;5.91;78.41
23363;BME280;11853;48.080;11.960;2023-02-16T07:40:35;95835.13;;;6.11;79.29
23363;BME280;11853;48.080;11.960;2023-02-16T07:43:02;95838.03;;;6.46;79.85
23363;BME280;11853;48.080;11.960;2023-02-16T07:45:29;95841.34;;;6.88;79.95
23363;BME280;11853;48.080;11.960;2023-02-16T07:47:57;95835.75;;;7.18;80.43
23363;BME280;11853;48.080;11.960;2023-02-16T07:50:23;95843.97;;;7.39;79.70
23363;BME280;11853;48.080;11.960;2023-02-16T07:52:49;95837.00;;;7.38;80.02
23363;BME280;11853;48.080;11.960;2023-02-16T07:55:15;95836.34;;;7.48;79.91
23363;BME280;11853;48.080;11.960;2023-02-16T07:57:41;95829.13;;;7.50;80.09
23363;BME280;11853;48.080;11.960;2023-02-16T08:00:07;95840.97;;;7.57;80.82
23363;BME280;11853;48.080;11.960;2023-02-16T08:02:35;95840.91;;;7.70;81.74
23363;BME280;11853;48.080;11.960;2023-02-16T08:05:00;95839.59;;;7.88;81.31
23363;BME280;11853;48.080;11.960;2023-02-16T08:07:26;95839.31;;;8.28;80.54
23363;BME280;11853;48.080;11.960;2023-02-16T08:09:52;95842.47;;;8.68;78.71
23363;BME280;11853;48.080;11.960;2023-02-16T08:12:18;95835.81;;;9.09;75.64
23363;BME280;11853;48.080;11.960;2023-02-16T08:14:44;95837.13;;;9.60;74.31
23363;BME280;11853;48.080;11.960;2023-02-16T08:17:13;95835.72;;;10.10;72.51
23363;BME280;11853;48.080;11.960;2023-02-16T08:19:39;95836.56;;;10.43;71.66
23363;BME280;11853;48.080;11.960;2023-02-16T08:22:06;95840.53;;;10.70;69.21
23363;BME280;11853;48.080;11.960;2023-02-16T08:24:33;95842.22;;;10.92;69.53
23363;BME280;11853;48.080;11.960;2023-02-16T08:27:04;95843.91;;;11.44;68.21
23363;BME280;11853;48.080;11.960;2023-02-16T08:29:31;95845.81;;;11.94;67.92
23363;BME280;11853;48.080;11.960;2023-02-16T08:31:58;95841.66;;;12.40;67.21
23363;BME280;11853;48.080;11.960;2023-02-16T08:34:24;95835.75;;;12.95;65.24
23363;BME280;11853;48.080;11.960;2023-02-16T08:36:53;95838.03;;;13.46;65.94
23363;BME280;11853;48.080;11.960;2023-02-16T08:39:22;95846.81;;;13.94;65.25
23363;BME280;11853;48.080;11.960;2023-02-16T08:41:49;95850.78;;;14.35;62.46
23363;BME280;11853;48.080;11.960;2023-02-16T08:44:16;95848.13;;;14.89;61.46
23363;BME280;11853;48.080;11.960;2023-02-16T08:46:44;95851.59;;;15.51;60.73
23363;BME280;11853;48.080;11.960;2023-02-16T08:49:15;95847.03;;;16.12;58.92
23363;BME280;11853;48.080;11.960;2023-02-16T08:51:44;95841.47;;;16.56;55.88
23363;BME280;11853;48.080;11.960;2023-02-16T08:54:17;95845.84;;;16.57;54.28
23363;BME280;11853;48.080;11.960;2023-02-16T08:56:44;95848.50;;;16.57;53.10
23363;BME280;11853;48.080;11.960;2023-02-16T08:59:17;95845.84;;;16.65;52.89
23363;BME280;11853;48.080;11.960;2023-02-16T09:01:43;95844.72;;;16.84;51.31
23363;BME280;11853;48.080;11.960;2023-02-16T09:04:11;95855.09;;;17.04;50.33
23363;BME280;11853;48.080;11.960;2023-02-16T09:06:39;95842.38;;;16.98;47.56
23363;BME280;11853;48.080;11.960;2023-02-16T09:09:06;95840.53;;;16.90;49.10
23363;BME280;11853;48.080;11.960;2023-02-16T09:11:33;95841.50;;;16.73;47.11
23363;BME280;11853;48.080;11.960;2023-02-16T09:13:59;95837.66;;;17.16;48.29
23363;BME280;11853;48.080;11.960;2023-02-16T09:16:26;95835.13;;;17.31;46.95
23363;BME280;11853;48.080;11.960;2023-02-16T09:18:54;95840.81;;;17.36;44.56
23363;BME280;11853;48.080;11.960;2023-02-16T09:21:24;95841.59;;;17.77;42.95
23363;BME280;11853;48.080;11.960;2023-02-16T09:23:51;95847.22;;;18.07;43.14
23363;BME280;11853;48.080;11.960;2023-02-16T09:26:21;95844.06;;;18.66;42.62
23363;BME280;11853;48.080;11.960;2023-02-16T09:28:47;95847.69;;;18.73;40.29
23363;BME280;11853;48.080;11.960;2023-02-16T09:31:28;95844.66;;;18.99;40.82
23363;BME280;11853;48.080;11.960;2023-02-16T09:34:04;95845.34;;;19.01;40.11
23363;BME280;11853;48.080;11.960;2023-02-16T09:36:31;95841.75;;;19.09;39.22
23363;BME280;11853;48.080;11.960;2023-02-16T09:38:58;95838.34;;;18.92;40.27
23363;BME280;11853;48.080;11.960;2023-02-16T09:41:31;95859.84;;;18.38;40.48
23363;BME280;11853;48.080;11.960;2023-02-16T09:46:27;95850.97;;;18.60;38.75
23363;BME280;11853;48.080;11.960;2023-02-16T09:48:55;95847.53;;;18.12;40.81
23363;BME280;11853;48.080;11.960;2023-02-16T09:51:31;95840.66;;;18.10;39.90
23363;BME280;11853;48.080;11.960;2023-02-16T09:54:49;95843.00;;;18.13;41.56
23363;BME280;11853;48.080;11.960;2023-02-16T09:56:53;95850.31;;;18.27;40.73
23363;BME280;11853;48.080;11.960;2023-02-16T09:59:40;95847.75;;;18.34;40.94
23363;BME280;11853;48.080;11.960;2023-02-16T10:10:19;95840.31;;;19.74;39.93
23363;BME280;11853;48.080;11.960;2023-02-16T10:12:53;95849.50;;;19.94;37.42
23363;BME280;11853;48.080;11.960;2023-02-16T10:15:23;95850.03;;;20.34;36.89
23363;BME280;11853;48.080;11.960;2023-02-16T10:17:55;95845.09;;;20.53;36.68
23363;BME280;11853;48.080;11.960;2023-02-16T10:20:24;95842.00;;;21.13;36.34
23363;BME280;11853;48.080;11.960;2023-02-16T10:23:18;95845.06;;;21.32;37.29
23363;BME280;11853;48.080;11.960;2023-02-16T10:26:24;95832.72;;;21.44;33.70
23363;BME280;11853;48.080;11.960;2023-02-16T10:28:56;95833.97;;;21.42;33.84
23363;BME280;11853;48.080;11.960;2023-02-16T10:31:33;95839.88;;;21.09;33.56
23363;BME280;11853;48.080;11.960;2023-02-16T10:34:37;95835.50;;;20.86;33.08
23363;BME280;11853;48.080;11.960;2023-02-16T10:37:15;95834.09;;;20.54;33.46
23363;BME280;11853;48.080;11.960;2023-02-16T10:45:46;95834.03;;;20.84;34.46
23363;BME280;11853;48.080;11.960;2023-02-16T10:48:16;95830.47;;;20.62;33.46
23363;BME280;11853;48.080;11.960;2023-02-16T10:51:00;95825.91;;;20.62;33.87
23363;BME280;11853;48.080;11.960;2023-02-16T10:56:42;95829.78;;;20.09;33.88
23363;BME280;11853;48.080;11.960;2023-02-16T10:59:23;95820.66;;;19.50;34.05
23363;BME280;11853;48.080;11.960;2023-02-16T11:01:52;95829.44;;;19.15;34.85
23363;BME280;11853;48.080;11.960;2023-02-16T11:04:41;95812.94;;;18.95;34.98
23363;BME280;11853;48.080;11.960;2023-02-16T11:07:09;95813.53;;;18.82;35.25
23363;BME280;11853;48.080;11.960;2023-02-16T11:09:35;95813.13;;;18.39;35.53
23363;BME280;11853;48.080;11.960;2023-02-16T11:12:14;95811.75;;;18.20;36.04
23363;BME280;11853;48.080;11.960;2023-02-16T11:14:48;95812.91;;;18.49;35.82
23363;BME280;11853;48.080;11.960;2023-02-16T11:17:16;95812.34;;;18.84;36.12
23363;BME280;11853;48.080;11.960;2023-02-16T11:20:02;95807.78;;;18.62;35.07
23363;BME280;11853;48.080;11.960;2023-02-16T11:22:38;95815.69;;;18.63;36.13
23363;BME280;11853;48.080;11.960;2023-02-16T11:25:19;95806.59;;;18.64;35.66
23363;BME280;11853;48.080;11.960;2023-02-16T11:27:56;95801.19;;;18.41;35.17
23363;BME280;11853;48.080;11.960;2023-02-16T11:30:34;95795.28;;;18.46;35.95
23363;BME280;11853;48.080;11.960;2023-02-16T11:33:02;95777.06;;;18.56;35.53
23363;BME280;11853;48.080;11.960;2023-02-16T11:35:31;95785.81;;;17.96;34.19
23363;BME280;11853;48.080;11.960;2023-02-16T11:37:58;95783.19;;;17.79;35.94
23363;BME280;11853;48.080;11.960;2023-02-16T11:40:32;95784.69;;;17.26;34.96
23363;BME280;11853;48.080;11.960;2023-02-16T11:42:59;95789.25;;;17.09;35.76
23363;BME280;11853;48.080;11.960;2023-02-16T11:45:32;95783.03;;;16.60;35.93
23363;BME280;11853;48.080;11.960;2023-02-16T11:48:09;95783.38;;;16.57;35.85
23363;BME280;11853;48.080;11.960;2023-02-16T11:50:38;95782.19;;;16.51;36.34
23363;BME280;11853;48.080;11.960;2023-02-16T11:53:21;95783.53;;;16.55;37.28
23363;BME280;11853;48.080;11.960;2023-02-16T11:55:48;95776.66;;;16.61;37.12
23363;BME280;11853;48.080;11.960;2023-02-16T12:04:06;95767.94;;;16.51;37.02
23363;BME280;11853;48.080;11.960;2023-02-16T12:12:45;95754.25;;;16.78;36.76
23363;BME280;11853;48.080;11.960;2023-02-16T12:23:40;95744.34;;;16.95;36.79
23363;BME280;11853;48.080;11.960;2023-02-16T12:39:43;95715.72;;;16.71;36.16
23363;BME280;11853;48.080;11.960;2023-02-16T12:45:10;95711.03;;;16.49;36.78
23363;BME280;11853;48.080;11.960;2023-02-16T12:50:21;95707.66;;;16.22;36.93
23363;BME280;11853;48.080;11.960;2023-02-16T12:52:51;95715.38;;;16.09;37.14
23363;BME280;11853;48.080;11.960;2023-02-16T12:55:38;95703.09;;;15.90;36.18
23363;BME280;11853;48.080;11.960;2023-02-16T13:00:48;95701.09;;;15.84;37.31
23363;BME280;11853;48.080;11.960;2023-02-16T13:03:19;95690.88;;;15.71;36.88
23363;BME280;11853;48.080;11.960;2023-02-16T13:11:19;95683.56;;;15.47;36.81
23363;BME280;11853;48.080;11.960;2023-02-16T13:13:46;95686.53;;;15.36;36.73
23363;BME280;11853;48.080;11.960;2023-02-16T13:16:27;95684.03;;;15.34;37.15
23363;BME280;11853;48.080;11.960;2023-02-16T13:19:00;95685.66;;;15.27;37.72
23363;BME280;11853;48.080;11.960;2023-02-16T13:32:15;95689.59;;;15.06;38.11
23363;BME280;11853;48.080;11.960;2023-02-16T13:35:35;95679.03;;;14.97;38.10
23363;BME280;11853;48.080;11.960;2023-02-16T13:44:01;95677.53;;;14.76;38.29
23363;BME280;11853;48.080;11.960;2023-02-16T13:46:31;95676.66;;;14.68;38.13
23363;BME280;11853;48.080;11.960;2023-02-16T13:48:59;95675.94;;;14.57;38.11
23363;BME280;11853;48.080;11.960;2023-02-16T13:51:27;95671.50;;;14.48;38.35
23363;BME280;11853;48.080;11.960;2023-02-16T13:54:05;95669.81;;;14.47;38.11
23363;BME280;11853;48.080;11.960;2023-02-16T13:56:35;95674.94;;;14.40;37.96
23363;BME280;11853;48.080;11.960;2023-02-16T14:01:59;95673.88;;;14.33;39.23
23363;BME280;11853;48.080;11.960;2023-02-16T14:09:49;95674.50;;;14.27;37.89
23363;BME280;11853;48.080;11.960;2023-02-16T14:12:37;95672.94;;;14.16;36.35
23363;BME280;11853;48.080;11.960;2023-02-16T14:15:04;95675.47;;;14.00;36.30
23363;BME280;11853;48.080;11.960;2023-02-16T14:17:33;95684.09;;;13.94;37.53
23363;BME280;11853;48.080;11.960;2023-02-16T14:27:55;95668.44;;;13.81;37.24
23363;BME280;11853;48.080;11.960;2023-02-16T14:36:13;95668.28;;;13.65;37.88
23363;BME280;11853;48.080;11.960;2023-02-16T14:38:44;95673.47;;;13.66;37.65
23363;BME280;11853;48.080;11.960;2023-02-16T14:41:33;95668.28;;;13.65;37.71
23363;BME280;11853;48.080;11.960;2023-02-16T14:49:40;95666.69;;;13.72;38.51
23363;BME280;11853;48.080;11.960;2023-02-16T15:03:00;95661.56;;;13.61;38.19
23363;BME280;11853;48.080;11.960;2023-02-16T15:05:33;95662.72;;;13.58;38.89
23363;BME280;11853;48.080;11.960;2023-02-16T15:08:17;95650.38;;;13.57;38.90
23363;BME280;11853;48.080;11.960;2023-02-16T15:10:48;95652.34;;;13.55;39.25
23363;BME280;11853;48.080;11.960;2023-02-16T15:13:29;95650.69;;;13.54;39.73
23363;BME280;11853;48.080;11.960;2023-02-16T15:15:59;95653.66;;;13.51;39.08
23363;BME280;11853;48.080;11.960;2023-02-16T15:18:30;95658.91;;;13.43;38.91
23363;BME280;11853;48.080;11.960;2023-02-16T15:20:57;95652.47;;;13.36;38.71
23363;BME280;11853;48.080;11.960;2023-02-16T15:23:28;95649.44;;;13.31;38.59
23363;BME280;11853;48.080;11.960;2023-02-16T15:26:17;95647.03;;;13.27;38.62
23363;BME280;11853;48.080;11.960;2023-02-16T15:28:51;95644.38;;;13.27;38.95
23363;BME280;11853;48.080;11.960;2023-02-16T15:31:18;95644.66;;;13.24;39.29
23363;BME280;11853;48.080;11.960;2023-02-16T15:34:04;95643.72;;;13.25;39.30
23363;BME280;11853;48.080;11.960;2023-02-16T15:39:44;95646.66;;;13.22;39.94
23363;BME280;11853;48.080;11.960;2023-02-16T15:41:48;95646.94;;;13.19;40.05
23363;BME280;11853;48.080;11.960;2023-02-16T15:44:29;95643.19;;;13.12;39.44
23363;BME280;11853;48.080;11.960;2023-02-16T15:47:13;95646.97;;;13.10;38.90
23363;BME280;11853;48.080;11.960;2023-02-16T15:49:40;95646.44;;;13.06;39.14
23363;BME280;11853;48.080;11.960;2023-02-16T15:52:12;95646.03;;;13.01;39.19
23363;BME280;11853;48.080;11.960;2023-02-16T15:54:39;95653.63;;;12.96;39.11